Terminal Aerodrome Forecast
Issued by NWS Amarillo, TX

Home | Current Version | Previous Version | Text Only | Print | Product List | Glossary On
Versions: 1 2 3 4 5 6 7 8 9 10 11 12 13 14
000
FTUS44 KAMA 300500
TAFAMA
TAF
KAMA 300520Z 3006/0106 17013KT P6SM SCT050 BKN120
      TEMPO 3006/3010 3SM -TSRA BR OVC040CB
     FM301000 18012KT P6SM SCT120
     FM301400 20016KT P6SM SCT080
     FM010100 18012KT P6SM SCT200=

USA.gov is the U.S. government's official web portal to all federal, state and local government web resources and services.